Time;durP1;ratioP1;P1;durP2;ratioP2;P2;SDS_P1;SDS_P2;PMS_P1;PMS_P2;Temp;Humidity;BMP_temperature;BMP_pressure;BME280_temperature;BME280_humidity;BME280_pressure;Samples;Min_cycle;Max_cycle;Signal;HPM_P1;HPM_P2
2022/07/16 00:02:44;;;;;;;;;6.00;6.00;;;;;21.63;40.22;101709.19;5061810;28;45867;-71
2022/07/16 00:05:10;;;;;;;;;3.67;3.67;;;;;21.60;39.87;101703.38;5061999;28;45259;-71
2022/07/16 00:07:35;;;;;;;;;4.00;4.00;;;;;21.59;40.49;101696.34;5062041;28;45291;-71
2022/07/16 00:10:01;;;;;;;;;6.00;5.00;;;;;21.57;40.58;101707.38;5061451;28;45482;-71
2022/07/16 00:12:27;;;;;;;;;3.67;3.67;;;;;21.57;40.90;101712.78;5061504;28;45345;-71
2022/07/16 00:14:52;;;;;;;;;5.00;5.00;;;;;21.52;41.11;101721.56;5061642;28;45229;-72
2022/07/16 00:17:18;;;;;;;;;5.00;4.67;;;;;21.48;41.35;101725.78;5049430;28;45558;-71
2022/07/16 00:19:45;;;;;;;;;5.33;5.33;;;;;21.41;41.44;101714.22;5061537;28;46299;-71
2022/07/16 00:22:10;;;;;;;;;5.67;5.67;;;;;21.35;41.77;101713.25;5061692;28;46138;-71
2022/07/16 00:24:36;;;;;;;;;6.00;5.33;;;;;21.31;41.63;101715.53;5061743;28;45516;-71
2022/07/16 00:27:01;;;;;;;;;5.33;3.67;;;;;21.27;41.34;101708.94;5061574;28;45702;-71
2022/07/16 00:29:27;;;;;;;;;6.33;5.67;;;;;21.25;41.69;101711.03;5061583;28;45660;-71
2022/07/16 00:31:54;;;;;;;;;4.67;4.00;;;;;21.25;41.86;101710.22;5061370;28;45339;-71
2022/07/16 00:34:19;;;;;;;;;4.67;4.00;;;;;21.17;41.52;101712.16;5061394;28;45288;-71
2022/07/16 00:36:45;;;;;;;;;5.67;4.00;;;;;21.18;41.96;101711.09;5054757;28;45320;-71
2022/07/16 00:39:11;;;;;;;;;5.33;5.33;;;;;21.15;42.01;101708.84;5042993;28;45920;-71
2022/07/16 00:41:38;;;;;;;;;7.33;5.33;;;;;21.17;42.24;101712.16;5061280;28;46240;-71
2022/07/16 00:44:09;;;;;;;;;5.00;4.00;;;;;21.16;42.27;101713.19;5061290;28;45338;-71
2022/07/16 00:46:36;;;;;;;;;5.33;5.33;;;;;21.14;42.29;101709.91;5043407;28;45375;-71
2022/07/16 00:49:02;;;;;;;;;7.00;7.00;;;;;21.09;42.40;101707.03;5053720;28;46379;-71
2022/07/16 00:51:29;;;;;;;;;6.00;5.00;;;;;21.05;43.01;101709.38;5060815;28;46482;-71
2022/07/16 00:53:55;;;;;;;;;6.00;6.00;;;;;20.97;43.08;101715.03;5060808;28;45575;-71
2022/07/16 00:56:22;;;;;;;;;5.00;5.00;;;;;20.92;42.91;101712.97;5043243;28;45410;-71
2022/07/16 00:58:49;;;;;;;;;6.00;5.00;;;;;20.81;42.81;101706.38;5060929;28;45501;-73
2022/07/16 01:01:15;;;;;;;;;7.00;5.00;;;;;20.74;43.42;101715.59;5055958;28;48375;-73
2022/07/16 01:03:41;;;;;;;;;4.33;4.33;;;;;20.65;43.74;101718.56;5061059;28;45307;-71
2022/07/16 01:06:08;;;;;;;;;4.33;4.33;;;;;20.55;43.84;101708.25;5061142;28;45336;-71
2022/07/16 01:08:35;;;;;;;;;6.00;6.00;;;;;20.50;44.15;101701.84;5060960;28;45366;-71
2022/07/16 01:11:04;;;;;;;;;6.67;6.33;;;;;20.41;44.12;101701.28;5060863;28;46121;-71
2022/07/16 01:13:31;;;;;;;;;5.00;5.00;;;;;20.36;44.76;101714.59;5060320;28;45429;-71
2022/07/16 01:15:56;;;;;;;;;6.00;4.00;;;;;20.26;44.63;101709.69;5045330;28;45311;-71
2022/07/16 01:18:21;;;;;;;;;7.00;4.33;;;;;20.22;44.49;101720.06;5044944;28;50138;-71
2022/07/16 01:20:47;;;;;;;;;4.00;4.00;;;;;20.11;44.97;101713.47;5048562;28;48490;-71
2022/07/16 01:23:19;;;;;;;;;7.33;6.33;;;;;20.08;45.33;101716.59;5060463;28;45200;-71
2022/07/16 01:25:45;;;;;;;;;5.67;5.00;;;;;20.05;45.01;101717.84;5042654;28;45341;-73
2022/07/16 01:28:10;;;;;;;;;6.33;6.33;;;;;19.98;45.30;101721.59;5053080;28;46274;-73
2022/07/16 01:30:35;;;;;;;;;5.00;4.00;;;;;19.93;45.47;101719.53;5060703;28;45415;-73
2022/07/16 01:33:23;;;;;;;;;5.00;5.00;;;;;19.85;45.62;101726.00;5060662;28;45245;-73
2022/07/16 01:35:50;;;;;;;;;5.67;5.67;;;;;19.77;46.13;101726.22;5060802;28;45356;-73
2022/07/16 01:38:16;;;;;;;;;5.00;5.00;;;;;19.71;46.53;101718.97;5060254;28;45461;-73
2022/07/16 01:40:41;;;;;;;;;7.00;5.00;;;;;19.68;46.58;101725.63;5039830;28;46410;-73
2022/07/16 01:43:18;;;;;;;;;4.67;4.67;;;;;19.60;46.64;101715.09;5060326;28;45476;-73
2022/07/16 01:45:44;;;;;;;;;4.00;4.00;;;;;19.60;46.94;101723.19;5060489;28;45260;-73
2022/07/16 01:48:12;;;;;;;;;6.00;5.33;;;;;19.58;47.03;101725.25;5060219;28;45328;-71
2022/07/16 01:50:38;;;;;;;;;4.00;4.00;;;;;19.49;47.08;101721.94;5060109;28;46315;-71
2022/07/16 01:53:03;;;;;;;;;5.33;5.33;;;;;19.42;47.48;101727.34;5059854;28;45499;-71
2022/07/16 01:55:29;;;;;;;;;5.67;5.67;;;;;19.37;47.33;101724.44;5050129;28;45343;-71
2022/07/16 01:57:54;;;;;;;;;5.00;5.00;;;;;19.39;47.32;101730.44;5059934;28;45296;-71
2022/07/16 02:00:20;;;;;;;;;6.00;4.00;;;;;19.33;47.50;101731.31;5060091;28;45376;-71
2022/07/16 02:02:45;;;;;;;;;4.33;4.33;;;;;19.33;47.52;101731.31;5041864;28;45513;-71
2022/07/16 02:05:12;;;;;;;;;5.00;5.00;;;;;19.29;47.71;101733.56;5054277;28;45342;-71
2022/07/16 02:07:38;;;;;;;;;5.67;5.67;;;;;19.25;47.80;101741.22;5052745;28;45511;-71
2022/07/16 02:10:03;;;;;;;;;6.33;5.67;;;;;19.19;48.28;101728.63;5059295;28;46244;-71
2022/07/16 02:12:29;;;;;;;;;5.00;5.00;;;;;19.15;48.21;101719.28;5059710;28;45320;-71
2022/07/16 02:14:54;;;;;;;;;7.33;7.00;;;;;19.13;48.08;101724.88;5059954;28;45237;-71
2022/07/16 02:17:19;;;;;;;;;5.00;5.00;;;;;19.08;48.46;101724.69;5065576;28;45403;-71
2022/07/16 02:19:45;;;;;;;;;7.67;7.00;;;;;19.02;48.27;101720.94;5059622;28;47140;-71
2022/07/16 02:22:10;;;;;;;;;5.00;4.33;;;;;18.98;48.47;101725.06;5059719;28;50447;-71
2022/07/16 02:24:35;;;;;;;;;6.00;6.00;;;;;18.98;49.11;101725.06;5059817;28;45273;-71
2022/07/16 02:27:01;;;;;;;;;5.33;5.33;;;;;18.93;49.33;101725.69;5059465;28;45281;-71
2022/07/16 02:29:26;;;;;;;;;8.33;7.00;;;;;18.87;49.37;101725.66;5059575;28;45476;-71
2022/07/16 02:31:52;;;;;;;;;5.00;5.00;;;;;18.86;49.29;101718.63;5054711;28;45842;-71
2022/07/16 02:34:17;;;;;;;;;7.00;6.33;;;;;18.84;49.77;101721.53;5059776;28;45247;-71
2022/07/16 02:36:42;;;;;;;;;4.67;4.67;;;;;18.82;49.63;101723.59;5059535;28;45418;-71
2022/07/16 02:39:07;;;;;;;;;5.67;5.67;;;;;18.75;50.11;101717.38;5059278;28;45325;-71
2022/07/16 02:41:33;;;;;;;;;6.33;5.00;;;;;18.73;50.04;101732.91;5046179;28;45563;-71
2022/07/16 02:43:58;;;;;;;;;6.00;5.33;;;;;18.71;50.15;101727.75;5059537;28;45272;-71
2022/07/16 02:46:24;;;;;;;;;7.00;7.00;;;;;18.67;49.83;101721.09;5059607;28;45292;-71
2022/07/16 02:48:49;;;;;;;;;6.00;6.00;;;;;18.67;50.37;101735.38;5059192;28;47097;-71
2022/07/16 02:51:14;;;;;;;;;3.00;2.33;;;;;18.64;50.16;101726.88;5041262;28;45259;-71
2022/07/16 02:53:40;;;;;;;;;6.00;6.00;;;;;18.62;50.35;101735.16;5041162;28;45690;-71
2022/07/16 02:56:06;;;;;;;;;5.00;5.00;;;;;18.62;50.45;101740.53;5059247;28;45411;-73
2022/07/16 02:58:32;;;;;;;;;7.00;7.00;;;;;18.64;50.90;101748.41;5059068;28;45625;-73
2022/07/16 03:00:57;;;;;;;;;3.67;3.67;;;;;18.60;50.56;101739.94;5059207;28;45285;-73
2022/07/16 03:03:22;;;;;;;;;6.00;6.00;;;;;18.51;50.80;101730.38;5059491;28;45347;-73
2022/07/16 03:05:48;;;;;;;;;6.67;5.67;;;;;18.51;51.25;101736.59;5059256;28;45426;-73
2022/07/16 03:08:13;;;;;;;;;6.00;6.00;;;;;18.50;51.65;101731.41;5058916;28;45399;-73
2022/07/16 03:10:38;;;;;;;;;6.00;5.33;;;;;18.44;51.48;101730.38;5059213;28;45349;-71
2022/07/16 03:13:04;;;;;;;;;7.67;7.67;;;;;18.41;52.13;101728.09;5053316;28;45479;-71
2022/07/16 03:15:29;;;;;;;;;5.67;5.67;;;;;18.38;52.21;101736.56;5058679;28;45471;-73
2022/07/16 03:17:54;;;;;;;;;6.00;6.00;;;;;18.36;51.70;101727.84;5064533;28;45541;-73
2022/07/16 03:20:20;;;;;;;;;4.00;4.00;;;;;18.37;51.98;101727.66;5057273;28;45277;-73
2022/07/16 03:22:46;;;;;;;;;6.33;6.33;;;;;18.39;51.82;101728.28;5059015;28;45473;-71
2022/07/16 03:25:13;;;;;;;;;6.33;5.00;;;;;18.36;52.33;101723.31;5058724;28;45452;-71
2022/07/16 03:27:38;;;;;;;;;6.00;6.00;;;;;18.40;52.15;101729.09;5058556;28;45332;-71
2022/07/16 03:30:04;;;;;;;;;8.33;8.33;;;;;18.36;52.28;101714.41;5058617;28;45343;-71
2022/07/16 03:32:29;;;;;;;;;6.00;6.00;;;;;18.35;52.47;101718.13;5059110;28;45371;-71
2022/07/16 03:34:54;;;;;;;;;9.67;7.67;;;;;18.32;52.47;101719.38;5058803;28;45569;-71
2022/07/16 03:37:20;;;;;;;;;7.33;6.67;;;;;18.37;53.04;101738.41;5058487;28;45477;-71
2022/07/16 03:39:45;;;;;;;;;5.00;5.00;;;;;18.33;52.92;101730.94;5040613;28;45446;-71
2022/07/16 03:42:10;;;;;;;;;7.00;6.67;;;;;18.34;52.03;101737.97;5050766;28;45348;-71
2022/07/16 03:44:36;;;;;;;;;6.33;6.33;;;;;18.27;52.40;101735.28;5040609;28;46090;-71
2022/07/16 03:47:01;;;;;;;;;7.67;7.00;;;;;18.23;52.71;101732.16;5040421;28;46895;-71
2022/07/16 03:49:27;;;;;;;;;9.00;8.00;;;;;18.15;52.69;101733.19;5058224;28;45257;-71
2022/07/16 03:51:53;;;;;;;;;9.33;8.00;;;;;18.10;53.18;101721.31;5058886;28;45363;-71
2022/07/16 03:54:18;;;;;;;;;7.00;7.00;;;;;18.07;53.10;101727.13;5058117;28;45538;-71
2022/07/16 03:56:43;;;;;;;;;11.00;7.67;;;;;18.05;53.35;101730.00;5058481;28;45416;-73
2022/07/16 03:59:10;;;;;;;;;7.67;7.67;;;;;18.02;53.25;101733.91;5040517;28;45356;-73
2022/07/16 04:01:36;;;;;;;;;9.00;9.00;;;;;17.98;52.76;101729.97;5058363;28;45165;-73
2022/07/16 04:04:01;;;;;;;;;8.67;8.67;;;;;17.92;53.58;101730.75;5058404;28;45293;-73
2022/07/16 04:06:27;;;;;;;;;7.00;7.00;;;;;17.88;53.79;101726.81;5058276;28;46462;-73
2022/07/16 04:08:52;;;;;;;;;9.00;9.00;;;;;17.83;54.19;101737.31;5058323;28;45260;-73
2022/07/16 04:11:17;;;;;;;;;7.00;7.00;;;;;17.76;53.79;101732.75;5058368;28;45210;-73
2022/07/16 04:13:43;;;;;;;;;8.00;7.00;;;;;17.74;53.91;101742.88;5058273;28;45332;-73
2022/07/16 04:16:09;;;;;;;;;6.00;6.00;;;;;17.75;53.98;101747.22;5044781;28;47099;-73
2022/07/16 04:18:36;;;;;;;;;6.00;6.00;;;;;17.71;54.17;101737.03;5056751;28;45287;-73
2022/07/16 04:21:02;;;;;;;;;6.00;6.00;;;;;17.74;54.65;101745.56;5058555;28;45433;-73
2022/07/16 04:23:28;;;;;;;;;8.00;8.00;;;;;17.73;54.48;101753.81;5039701;28;46065;-73
2022/07/16 04:25:53;;;;;;;;;8.33;8.33;;;;;17.64;54.93;101745.94;5058194;28;45457;-73
2022/07/16 04:28:18;;;;;;;;;8.00;8.00;;;;;17.64;54.68;101751.31;5060171;28;45396;-73
2022/07/16 04:30:44;;;;;;;;;8.67;8.67;;;;;17.62;55.08;101755.19;5062004;28;45288;-73
2022/07/16 04:33:10;;;;;;;;;8.67;8.67;;;;;17.63;54.99;101757.69;5061478;28;45343;-73
2022/07/16 04:35:36;;;;;;;;;9.33;9.33;;;;;17.62;54.71;101755.19;5061165;28;45382;-73
2022/07/16 04:38:01;;;;;;;;;9.67;8.33;;;;;17.63;54.93;101759.56;5043315;28;45328;-73
2022/07/16 04:40:26;;;;;;;;;10.00;8.00;;;;;17.62;55.19;101764.09;5061695;28;45398;-73
2022/07/16 04:42:52;;;;;;;;;9.00;8.67;;;;;17.58;55.06;101757.47;5060978;28;45488;-73
2022/07/16 04:45:17;;;;;;;;;7.67;6.33;;;;;17.58;54.97;101760.16;5051000;28;47137;-73
2022/07/16 04:47:43;;;;;;;;;8.00;8.00;;;;;17.60;55.37;101765.31;5061232;28;45252;-73
2022/07/16 04:50:09;;;;;;;;;7.33;7.33;;;;;17.59;55.66;101769.03;5048833;28;45261;-73
2022/07/16 04:52:34;;;;;;;;;10.00;7.00;;;;;17.56;55.45;101764.03;5061008;28;45314;-73
2022/07/16 04:55:00;;;;;;;;;7.00;7.00;;;;;17.55;55.91;101763.22;5060849;28;50275;-74
2022/07/16 04:57:26;;;;;;;;;7.33;7.33;;;;;17.53;55.74;101759.88;5061010;28;45400;-73
2022/07/16 04:59:52;;;;;;;;;8.00;7.33;;;;;17.56;56.24;101772.09;5061215;28;45470;-73
2022/07/16 05:05:01;;;;;;;;;9.00;8.67;;;;;17.52;56.46;101764.47;5060901;28;45427;-73
2022/07/16 05:07:27;;;;;;;;;9.33;9.00;;;;;17.52;56.43;101769.84;5060778;28;45400;-73
2022/07/16 05:09:52;;;;;;;;;9.33;8.67;;;;;17.55;56.16;101768.59;5060837;28;45475;-73
2022/07/16 05:12:17;;;;;;;;;8.67;8.67;;;;;17.52;56.73;101760.94;5060678;28;45305;-74
2022/07/16 05:14:43;;;;;;;;;10.67;10.00;;;;;17.58;56.19;101762.00;5060758;28;45748;-73
2022/07/16 05:17:08;;;;;;;;;9.00;9.00;;;;;17.61;56.72;101765.13;5066626;28;45414;-73
2022/07/16 05:19:34;;;;;;;;;10.33;10.33;;;;;17.61;57.06;101765.13;5052675;28;45455;-73
2022/07/16 05:21:59;;;;;;;;;9.00;9.00;;;;;17.64;57.38;101764.75;5060690;28;45414;-73
2022/07/16 05:24:24;;;;;;;;;8.33;8.33;;;;;17.67;57.09;101768.88;5060689;28;46678;-73
2022/07/16 05:26:50;;;;;;;;;11.00;10.00;;;;;17.74;57.50;101776.97;5060447;28;45328;-73
2022/07/16 05:29:15;;;;;;;;;9.67;9.33;;;;;17.75;57.57;101770.59;5060979;28;45217;-73
2022/07/16 05:31:41;;;;;;;;;10.00;10.00;;;;;17.85;56.87;101781.81;5046344;28;45377;-73
2022/07/16 05:34:06;;;;;;;;;10.33;9.67;;;;;17.91;56.43;101780.19;5060638;28;45399;-73
2022/07/16 05:36:31;;;;;;;;;9.00;8.00;;;;;17.95;56.29;101781.44;5060472;28;45322;-73
2022/07/16 05:38:57;;;;;;;;;9.00;8.00;;;;;18.04;55.17;101785.66;5046114;28;45364;-73
2022/07/16 05:41:22;;;;;;;;;9.67;9.67;;;;;18.14;55.25;101788.00;5060547;28;45504;-73
2022/07/16 05:43:47;;;;;;;;;10.00;9.00;;;;;18.20;54.62;101781.00;5060223;28;51886;-73
2022/07/16 05:46:13;;;;;;;;;7.33;7.33;;;;;18.28;54.43;101777.28;5060259;28;45203;-73
2022/07/16 05:48:38;;;;;;;;;7.67;7.67;;;;;18.34;54.64;101778.34;5060474;28;45412;-71
2022/07/16 05:51:03;;;;;;;;;9.67;9.67;;;;;18.43;53.81;101782.53;5060079;28;45555;-71
2022/07/16 05:53:29;;;;;;;;;9.00;7.00;;;;;18.52;53.99;101784.00;5060207;28;45438;-71
2022/07/16 05:55:54;;;;;;;;;9.00;8.00;;;;;18.57;53.90;101778.03;5059814;28;50583;-73
2022/07/16 05:58:19;;;;;;;;;8.67;8.67;;;;;18.63;54.02;101779.06;5042091;28;45286;-73
2022/07/16 06:00:44;;;;;;;;;7.33;7.33;;;;;18.68;53.47;101785.50;5051142;28;47097;-73
2022/07/16 06:03:10;;;;;;;;;8.00;8.00;;;;;18.71;53.62;101784.28;5059988;28;45502;-73
2022/07/16 06:05:35;;;;;;;;;10.00;10.00;;;;;18.77;54.01;101783.44;5060193;28;45331;-73
2022/07/16 06:08:01;;;;;;;;;9.00;8.33;;;;;18.83;54.17;101789.06;5054778;28;45368;-72
2022/07/16 06:10:27;;;;;;;;;8.00;8.00;;;;;18.95;54.41;101802.75;5059993;28;45410;-73
2022/07/16 06:12:52;;;;;;;;;9.33;8.00;;;;;18.99;53.89;101794.06;5059473;28;45420;-74
2022/07/16 06:15:18;;;;;;;;;9.00;9.00;;;;;19.05;54.09;101795.94;5041965;28;45260;-74
2022/07/16 06:17:43;;;;;;;;;12.00;12.00;;;;;19.14;54.17;101807.38;5056316;28;45385;-74
2022/07/16 06:20:10;;;;;;;;;17.33;16.67;;;;;19.23;54.02;101809.84;5038475;28;45899;-75
2022/07/16 06:22:35;;;;;;;;;10.67;10.33;;;;;19.30;54.00;101808.81;5050273;28;46193;-75
2022/07/16 06:25:01;;;;;;;;;8.67;8.67;;;;;19.34;53.51;101797.63;5052924;28;45451;-75
2022/07/16 06:27:27;;;;;;;;;11.33;9.67;;;;;19.45;53.72;101809.66;5048424;28;45288;-75
2022/07/16 06:29:52;;;;;;;;;10.00;10.00;;;;;19.53;52.68;101809.44;5061829;28;45295;-75
2022/07/16 06:32:17;;;;;;;;;7.00;7.00;;;;;19.60;53.23;101817.53;5046570;28;47402;-75
2022/07/16 06:34:43;;;;;;;;;11.00;11.00;;;;;19.66;53.01;101814.81;5061401;28;45118;-75
2022/07/16 06:37:08;;;;;;;;;10.33;9.00;;;;;19.75;52.58;101818.13;5062178;28;45316;-75
2022/07/16 06:39:33;;;;;;;;;9.33;9.00;;;;;19.86;52.21;101822.06;5028150;28;45309;-74
2022/07/16 06:41:59;;;;;;;;;8.67;8.67;;;;;19.91;51.66;101832.22;5059433;28;45272;-73
2022/07/16 06:44:24;;;;;;;;;9.33;9.33;;;;;19.89;51.68;101826.19;5059296;28;45210;-73
2022/07/16 06:46:50;;;;;;;;;8.00;8.00;;;;;19.99;51.52;101833.88;5059649;28;45487;-73
2022/07/16 06:49:15;;;;;;;;;8.00;8.00;;;;;20.05;51.66;101833.03;5059056;28;45409;-73
2022/07/16 06:51:41;;;;;;;;;7.67;7.67;;;;;20.15;51.29;101832.59;5040490;28;47637;-73
2022/07/16 06:54:06;;;;;;;;;10.33;10.00;;;;;20.25;51.22;101842.94;5051335;28;45729;-73
2022/07/16 06:56:32;;;;;;;;;10.00;10.00;;;;;20.30;50.95;101835.84;5040976;28;45442;-72
2022/07/16 06:58:57;;;;;;;;;8.00;8.00;;;;;20.36;50.83;101842.31;5059474;28;45301;-75
2022/07/16 07:01:23;;;;;;;;;7.67;7.67;;;;;20.45;50.34;101851.00;5041470;28;45408;-75
2022/07/16 07:03:48;;;;;;;;;9.00;8.67;;;;;20.52;50.29;101857.19;5059359;28;45406;-73
2022/07/16 07:06:14;;;;;;;;;9.67;9.33;;;;;20.54;50.14;101863.22;5059290;28;45404;-73
2022/07/16 07:08:39;;;;;;;;;8.33;8.33;;;;;20.56;49.97;101858.41;5059124;28;45626;-73
2022/07/16 07:11:05;;;;;;;;;9.00;8.33;;;;;20.64;49.42;101861.91;5059079;28;45551;-74
2022/07/16 07:13:31;;;;;;;;;9.00;9.00;;;;;20.73;49.73;101862.47;5058947;28;45307;-73
2022/07/16 07:15:57;;;;;;;;;10.67;8.00;;;;;20.78;49.17;101866.22;5052080;28;45372;-73
2022/07/16 07:18:23;;;;;;;;;9.33;8.00;;;;;20.85;49.61;101859.91;5061289;28;45517;-73
2022/07/16 07:20:48;;;;;;;;;7.33;7.00;;;;;20.93;49.31;101868.66;5046941;28;48005;-73
2022/07/16 07:23:14;;;;;;;;;7.00;7.00;;;;;20.99;49.12;101864.25;5058794;28;45466;-73
2022/07/16 07:25:39;;;;;;;;;9.00;9.00;;;;;21.16;49.21;101858.34;5059271;28;45149;-73
2022/07/16 07:28:05;;;;;;;;;8.00;8.00;;;;;21.24;48.61;101868.03;5058746;28;45245;-73
2022/07/16 07:30:30;;;;;;;;;8.00;8.00;;;;;21.31;48.36;101861.53;5056856;28;46079;-73
2022/07/16 07:32:55;;;;;;;;;8.33;8.00;;;;;21.41;48.27;101868.34;5058883;28;46015;-73
2022/07/16 07:35:21;;;;;;;;;9.00;8.33;;;;;21.47;48.63;101859.34;5058747;28;45347;-73
2022/07/16 07:37:47;;;;;;;;;8.00;7.67;;;;;21.57;47.91;101867.78;5058703;28;45309;-73
2022/07/16 07:40:13;;;;;;;;;8.00;5.00;;;;;21.59;47.21;101858.63;5058719;28;45482;-72
2022/07/16 07:42:38;;;;;;;;;9.00;8.00;;;;;21.67;47.60;101866.47;5058450;28;45335;-73
2022/07/16 07:45:05;;;;;;;;;9.00;9.00;;;;;21.76;47.29;101867.03;5058738;28;45218;-74
2022/07/16 07:47:31;;;;;;;;;9.67;8.67;;;;;21.85;46.81;101857.56;5052578;28;47458;-73
2022/07/16 07:49:57;;;;;;;;;10.33;8.00;;;;;21.93;46.58;101857.28;5058487;28;45551;-73
2022/07/16 07:52:22;;;;;;;;;5.00;5.00;;;;;22.04;46.51;101860.31;5040634;28;45408;-73
2022/07/16 07:54:48;;;;;;;;;8.33;8.33;;;;;22.15;46.54;101862.25;5058703;28;45575;-73
2022/07/16 07:57:13;;;;;;;;;9.00;7.33;;;;;22.25;46.75;101867.16;5058500;28;45268;-73
2022/07/16 07:59:38;;;;;;;;;8.67;8.00;;;;;22.31;46.12;101852.72;5054271;28;47061;-73
2022/07/16 08:02:04;;;;;;;;;9.00;9.00;;;;;22.41;46.43;101868.41;5060672;28;45371;-73
2022/07/16 08:04:30;;;;;;;;;7.00;7.00;;;;;22.47;46.11;101855.03;5062101;28;45272;-73
2022/07/16 08:06:56;;;;;;;;;7.67;6.67;;;;;22.56;45.80;101862.63;5062161;28;45363;-73
2022/07/16 08:09:21;;;;;;;;;7.00;7.00;;;;;22.62;45.55;101851.97;5043588;28;48506;-73
2022/07/16 08:11:46;;;;;;;;;7.00;6.33;;;;;22.75;45.68;101857.19;5061379;28;45323;-73
2022/07/16 08:14:11;;;;;;;;;6.00;5.00;;;;;22.87;45.19;101865.38;5062078;28;45316;-73
2022/07/16 08:16:37;;;;;;;;;8.00;7.00;;;;;22.93;45.03;101852.78;5067076;28;45489;-73
2022/07/16 08:19:02;;;;;;;;;6.67;6.67;;;;;23.05;45.17;101855.53;5049325;28;47639;-73
2022/07/16 08:21:28;;;;;;;;;6.67;6.67;;;;;23.16;45.12;101851.16;5043482;28;45840;-73
2022/07/16 08:26:37;;;;;;;;;7.00;6.33;;;;;23.40;44.52;101851.25;5063142;28;44689;-76
2022/07/16 08:29:03;;;;;;;;;4.00;4.00;;;;;23.47;43.84;101843.84;5049706;28;47338;-76
2022/07/16 08:31:28;;;;;;;;;4.67;4.67;;;;;23.62;43.78;101850.69;5062537;28;45332;-74
2022/07/16 08:33:53;;;;;;;;;7.00;7.00;;;;;23.69;43.79;101854.09;5061475;28;45347;-73
2022/07/16 08:36:19;;;;;;;;;5.67;5.67;;;;;23.86;43.43;101856.09;5051527;28;45865;-73
2022/07/16 08:38:44;;;;;;;;;6.00;6.00;;;;;23.92;43.03;101863.28;5043195;28;47165;-74
2022/07/16 08:41:11;;;;;;;;;5.00;5.00;;;;;23.98;43.59;101859.63;5043042;28;45257;-73
2022/07/16 08:43:37;;;;;;;;;6.67;6.67;;;;;24.09;42.66;101864.22;5061799;28;45380;-73
2022/07/16 08:46:03;;;;;;;;;7.00;6.33;;;;;24.19;42.30;101865.53;5061350;28;45398;-73
2022/07/16 08:48:30;;;;;;;;;7.67;7.67;;;;;24.19;42.33;101854.66;5061287;28;45447;-74
2022/07/16 08:50:58;;;;;;;;;6.00;6.00;;;;;24.28;42.12;101860.53;5061384;28;45373;-74
2022/07/16 08:53:24;;;;;;;;;6.67;6.67;;;;;24.38;41.66;101858.03;5061328;28;45362;-73
2022/07/16 08:55:55;;;;;;;;;6.00;6.00;;;;;24.41;41.11;101857.56;5061294;28;45332;-73
2022/07/16 08:58:20;;;;;;;;;8.00;6.00;;;;;24.47;41.68;101861.19;5061134;28;46392;-73
2022/07/16 09:00:46;;;;;;;;;6.00;6.00;;;;;24.56;41.50;101854.31;5061184;28;45295;-73
2022/07/16 09:03:15;;;;;;;;;8.33;7.00;;;;;24.68;40.66;101858.88;5060983;28;45311;-73
2022/07/16 09:05:43;;;;;;;;;5.33;5.33;;;;;24.73;41.05;101866.28;5042986;28;47425;-73
2022/07/16 09:08:08;;;;;;;;;6.00;6.00;;;;;24.78;40.03;101864.50;5060706;28;45320;-73
2022/07/16 09:10:38;;;;;;;;;7.00;7.00;;;;;24.84;40.27;101863.53;5048820;28;45629;-74
2022/07/16 09:13:05;;;;;;;;;7.67;6.00;;;;;24.91;40.43;101866.13;5060162;28;45352;-74
2022/07/16 09:15:36;;;;;;;;;7.67;7.00;;;;;24.98;40.00;101865.97;5061240;28;45221;-75
2022/07/16 09:18:25;;;;;;;;;6.67;6.67;;;;;25.09;39.66;101873.25;5034388;28;47493;-73
2022/07/16 09:20:50;;;;;;;;;6.67;6.67;;;;;25.18;39.86;101867.41;5060941;28;45419;-74
2022/07/16 09:23:27;;;;;;;;;6.67;6.67;;;;;25.25;39.48;101865.34;5054850;28;45312;-73
2022/07/16 09:25:57;;;;;;;;;8.00;7.00;;;;;25.28;39.27;101859.41;5060955;28;45861;-73
2022/07/16 09:28:23;;;;;;;;;8.33;8.00;;;;;25.38;38.73;101866.91;5060388;28;46514;-73
2022/07/16 09:30:49;;;;;;;;;8.00;8.00;;;;;25.35;38.78;101859.25;5042703;28;45338;-74
2022/07/16 09:33:17;;;;;;;;;8.33;8.00;;;;;25.49;38.63;101870.59;5053327;28;45341;-73
2022/07/16 09:35:43;;;;;;;;;6.33;6.33;;;;;25.51;38.72;101873.91;5060754;28;45552;-73
2022/07/16 09:38:09;;;;;;;;;5.33;5.33;;;;;25.54;37.99;101858.97;5042314;28;47889;-73
2022/07/16 09:40:46;;;;;;;;;7.00;7.00;;;;;25.65;37.88;101871.69;5060550;28;45289;-73
2022/07/16 09:43:11;;;;;;;;;5.33;5.33;;;;;25.73;38.03;101875.88;5060426;28;45391;-73
2022/07/16 09:45:39;;;;;;;;;7.67;7.67;;;;;25.75;37.34;101865.59;5060347;28;45385;-73
2022/07/16 09:48:26;;;;;;;;;9.00;8.00;;;;;25.86;36.59;101863.84;5045006;28;47503;-73
2022/07/16 09:50:53;;;;;;;;;6.00;6.00;;;;;25.90;37.36;101862.25;5060046;28;45228;-73
2022/07/16 09:53:21;;;;;;;;;5.33;5.00;;;;;26.00;37.25;101866.19;5046114;28;45359;-73
2022/07/16 09:55:54;;;;;;;;;6.67;6.67;;;;;26.09;36.57;101864.66;5042026;28;46382;-73
2022/07/16 09:58:19;;;;;;;;;5.00;5.00;;;;;26.16;36.36;101859.03;5046338;28;45620;-73
2022/07/16 10:00:45;;;;;;;;;6.00;6.00;;;;;26.28;35.52;101861.66;5060257;28;45260;-74
2022/07/16 10:03:11;;;;;;;;;4.33;4.33;;;;;26.38;35.34;101866.41;5056897;28;45461;-73
2022/07/16 10:05:37;;;;;;;;;5.67;4.67;;;;;26.41;34.69;101855.00;5060037;28;45375;-74
2022/07/16 10:08:02;;;;;;;;;4.00;4.00;;;;;26.44;34.39;101859.94;5054752;28;47075;-73
2022/07/16 10:10:27;;;;;;;;;4.33;4.33;;;;;26.54;34.67;101862.78;5060232;28;45295;-73
2022/07/16 10:12:53;;;;;;;;;5.00;5.00;;;;;26.67;34.39;101874.38;5059741;28;45416;-73
2022/07/16 10:15:20;;;;;;;;;5.67;4.67;;;;;26.73;34.14;101865.16;5044861;28;47055;-73
2022/07/16 10:17:46;;;;;;;;;5.00;4.00;;;;;26.73;34.27;101852.34;5065341;28;45268;-73
2022/07/16 10:20:17;;;;;;;;;4.00;4.00;;;;;26.80;34.52;101856.78;5059887;28;45384;-73
2022/07/16 10:22:45;;;;;;;;;5.67;5.67;;;;;26.98;34.40;101869.25;5049669;28;45394;-73
2022/07/16 10:25:16;;;;;;;;;6.33;6.33;;;;;27.15;33.42;101866.41;5040575;28;47487;-74
2022/07/16 10:27:42;;;;;;;;;5.00;5.00;;;;;27.29;33.28;101869.50;5059529;28;45415;-74
2022/07/16 10:30:13;;;;;;;;;5.00;5.00;;;;;27.46;33.47;101871.25;5041535;28;45368;-73
2022/07/16 10:33:06;;;;;;;;;5.00;4.33;;;;;27.59;33.54;101870.81;5059955;28;45283;-73
2022/07/16 10:35:33;;;;;;;;;4.00;4.00;;;;;27.70;33.11;101870.91;5059557;28;45237;-73
2022/07/16 10:38:08;;;;;;;;;5.33;5.33;;;;;27.89;32.64;101870.47;5059278;28;45505;-74
2022/07/16 10:40:36;;;;;;;;;6.00;6.00;;;;;28.05;32.31;101874.94;5059547;28;45262;-74
2022/07/16 10:43:15;;;;;;;;;6.67;6.67;;;;;28.24;32.35;101874.44;5059486;28;45423;-74
2022/07/16 10:45:58;;;;;;;;;7.00;7.00;;;;;28.38;31.86;101872.06;5052789;28;46455;-73
2022/07/16 10:48:48;;;;;;;;;7.33;6.00;;;;;28.53;31.85;101868.56;5047731;28;45378;-74
2022/07/16 10:51:24;;;;;;;;;6.00;6.00;;;;;28.68;31.10;101864.22;5059133;28;45263;-74
2022/07/16 10:54:02;;;;;;;;;6.33;6.33;;;;;28.86;31.07;101869.19;5059462;28;45478;-74
2022/07/16 10:56:32;;;;;;;;;5.00;5.00;;;;;29.09;31.98;101868.94;5056610;28;46588;-74
2022/07/16 10:58:58;;;;;;;;;4.00;2.00;;;;;29.31;30.59;101865.91;5041123;28;47049;-73
2022/07/16 11:01:23;;;;;;;;;5.00;5.00;;;;;29.48;30.18;101864.81;5059165;28;45693;-73
2022/07/16 11:03:52;;;;;;;;;5.33;5.33;;;;;29.59;28.90;101865.59;5059424;28;45330;-74
2022/07/16 11:06:22;;;;;;;;;6.00;6.00;;;;;29.68;29.87;101866.69;5059123;28;45550;-74
2022/07/16 11:08:54;;;;;;;;;7.67;6.00;;;;;29.86;29.44;101878.13;5059014;28;46708;-73
2022/07/16 11:11:20;;;;;;;;;5.00;5.00;;;;;29.94;29.15;101872.09;5058750;28;45487;-73
2022/07/16 11:13:52;;;;;;;;;4.00;4.00;;;;;30.09;29.18;101867.66;5059331;28;45284;-73
2022/07/16 11:16:17;;;;;;;;;4.33;4.33;;;;;30.18;28.69;101866.00;5064633;28;45368;-74
2022/07/16 11:18:43;;;;;;;;;4.00;4.00;;;;;30.29;28.34;101857.72;5044154;28;47244;-74
2022/07/16 11:21:09;;;;;;;;;4.67;4.67;;;;;30.44;28.65;101859.56;5041110;28;45386;-74
2022/07/16 11:23:54;;;;;;;;;3.67;3.67;;;;;30.59;27.97;101861.41;5058804;28;45419;-74
2022/07/16 11:26:20;;;;;;;;;4.00;4.00;;;;;30.75;28.19;101856.63;5059015;28;45324;-74
2022/07/16 11:28:53;;;;;;;;;5.33;5.33;;;;;30.89;27.71;101858.75;5059018;28;45483;-74